sensor_id;sensor_type;location;lat;lon;timestamp;pressure;altitude;pressure_sealevel;temperature;humidity
13015;BME280;6573;57.696;11.950;2023-04-28T00:00:57;101466.81;;;11.42;100.00
13015;BME280;6573;57.696;11.950;2023-04-28T00:03:25;101486.16;;;11.50;100.00
13015;BME280;6573;57.696;11.950;2023-04-28T00:05:54;101490.50;;;11.42;100.00
13015;BME280;6573;57.696;11.950;2023-04-28T00:08:23;101474.66;;;11.36;100.00
13015;BME280;6573;57.696;11.950;2023-04-28T00:10:54;101480.81;;;11.37;100.00
13015;BME280;6573;57.696;11.950;2023-04-28T00:13:23;101486.09;;;11.35;100.00
13015;BME280;6573;57.696;11.950;2023-04-28T00:15:52;101490.50;;;11.42;100.00
13015;BME280;6573;57.696;11.950;2023-04-28T00:18:23;101491.41;;;11.49;100.00
13015;BME280;6573;57.696;11.950;2023-04-28T00:20:55;101477.31;;;11.35;100.00
13015;BME280;6573;57.696;11.950;2023-04-28T00:23:23;101487.00;;;11.40;100.00
13015;BME280;6573;57.696;11.950;2023-04-28T00:25:54;101472.84;;;11.20;100.00
13015;BME280;6573;57.696;11.950;2023-04-28T00:28:23;101474.66;;;11.30;100.00
13015;BME280;6573;57.696;11.950;2023-04-28T00:31:00;101469.41;;;11.35;100.00
13015;BME280;6573;57.696;11.950;2023-04-28T00:33:29;101487.75;;;11.20;100.00
13015;BME280;6573;57.696;11.950;2023-04-28T00:36:00;101490.47;;;11.30;100.00
13015;BME280;6573;57.696;11.950;2023-04-28T00:38:28;101480.81;;;11.31;100.00
13015;BME280;6573;57.696;11.950;2023-04-28T00:40:58;101486.97;;;11.37;100.00
13015;BME280;6573;57.696;11.950;2023-04-28T00:43:26;101490.47;;;11.30;100.00
13015;BME280;6573;57.696;11.950;2023-04-28T00:45:55;101481.66;;;11.30;100.00
13015;BME280;6573;57.696;11.950;2023-04-28T00:48:24;101467.50;;;11.05;100.00
13015;BME280;6573;57.696;11.950;2023-04-28T00:50:53;101492.13;;;11.19;100.00
13015;BME280;6573;57.696;11.950;2023-04-28T00:53:21;101486.91;;;11.22;100.00
13015;BME280;6573;57.696;11.950;2023-04-28T00:55:50;101485.06;;;11.09;100.00
13015;BME280;6573;57.696;11.950;2023-04-28T00:58:24;101488.69;;;11.29;100.00
13015;BME280;6573;57.696;11.950;2023-04-28T01:00:52;101498.41;;;11.38;100.00
13015;BME280;6573;57.696;11.950;2023-04-28T01:03:20;101495.75;;;11.36;100.00
13015;BME280;6573;57.696;11.950;2023-04-28T01:05:49;101501.03;;;11.33;100.00
13015;BME280;6573;57.696;11.950;2023-04-28T01:08:22;101497.50;;;11.34;100.00
13015;BME280;6573;57.696;11.950;2023-04-28T01:10:50;101508.81;;;11.14;100.00
13015;BME280;6573;57.696;11.950;2023-04-28T01:13:19;101488.66;;;11.20;100.00
13015;BME280;6573;57.696;11.950;2023-04-28T01:15:49;101501.00;;;11.29;100.00
13015;BME280;6573;57.696;11.950;2023-04-28T01:18:17;101506.25;;;11.30;100.00
13015;BME280;6573;57.696;11.950;2023-04-28T01:20:46;101493.03;;;11.18;100.00
13015;BME280;6573;57.696;11.950;2023-04-28T01:23:15;101498.28;;;11.17;100.00
13015;BME280;6573;57.696;11.950;2023-04-28T01:25:45;101509.75;;;11.29;100.00
13015;BME280;6573;57.696;11.950;2023-04-28T01:28:13;101501.84;;;11.28;100.00
13015;BME280;6573;57.696;11.950;2023-04-28T01:30:42;101515.03;;;11.26;100.00
13015;BME280;6573;57.696;11.950;2023-04-28T01:33:10;101499.16;;;11.17;100.00
13015;BME280;6573;57.696;11.950;2023-04-28T01:35:38;101507.09;;;11.23;100.00
13015;BME280;6573;57.696;11.950;2023-04-28T01:38:06;101500.94;;;11.24;100.00
13015;BME280;6573;57.696;11.950;2023-04-28T01:40:35;101500.13;;;11.28;100.00
13015;BME280;6573;57.696;11.950;2023-04-28T01:43:04;101463.94;;;10.97;100.00
13015;BME280;6573;57.696;11.950;2023-04-28T01:45:33;101477.97;;;10.99;100.00
13015;BME280;6573;57.696;11.950;2023-04-28T01:48:01;101500.88;;;11.06;100.00
13015;BME280;6573;57.696;11.950;2023-04-28T01:50:29;101478.00;;;10.96;100.00
13015;BME280;6573;57.696;11.950;2023-04-28T01:52:58;101505.31;;;11.19;100.00
13015;BME280;6573;57.696;11.950;2023-04-28T01:55:26;101500.03;;;11.15;100.00
13015;BME280;6573;57.696;11.950;2023-04-28T01:57:54;101504.44;;;11.17;100.00
13015;BME280;6573;57.696;11.950;2023-04-28T02:00:27;101500.91;;;11.15;100.00
13015;BME280;6573;57.696;11.950;2023-04-28T02:02:55;101496.44;;;11.02;100.00
13015;BME280;6573;57.696;11.950;2023-04-28T02:05:24;101514.06;;;11.17;100.00
13015;BME280;6573;57.696;11.950;2023-04-28T02:07:53;101513.22;;;11.19;100.00
13015;BME280;6573;57.696;11.950;2023-04-28T02:10:22;101511.38;;;11.09;100.00
13015;BME280;6573;57.696;11.950;2023-04-28T02:12:50;101514.06;;;11.11;100.00
13015;BME280;6573;57.696;11.950;2023-04-28T02:15:18;101513.13;;;11.01;100.00
13015;BME280;6573;57.696;11.950;2023-04-28T02:17:48;101517.53;;;11.06;100.00
13015;BME280;6573;57.696;11.950;2023-04-28T02:20:16;101504.34;;;11.05;100.00
13015;BME280;6573;57.696;11.950;2023-04-28T02:22:45;101512.28;;;11.08;100.00
13015;BME280;6573;57.696;11.950;2023-04-28T02:25:13;101515.84;;;11.18;100.00
13015;BME280;6573;57.696;11.950;2023-04-28T02:27:41;101495.59;;;11.06;100.00
13015;BME280;6573;57.696;11.950;2023-04-28T02:30:10;101513.16;;;11.10;100.00
13015;BME280;6573;57.696;11.950;2023-04-28T02:32:39;101498.16;;;10.97;100.00
13015;BME280;6573;57.696;11.950;2023-04-28T02:35:09;101514.88;;;11.05;100.00
13015;BME280;6573;57.696;11.950;2023-04-28T02:37:37;101510.53;;;11.09;100.00
13015;BME280;6573;57.696;11.950;2023-04-28T02:40:06;101513.13;;;11.01;100.00
13015;BME280;6573;57.696;11.950;2023-04-28T02:42:35;101512.25;;;11.06;100.00
13015;BME280;6573;57.696;11.950;2023-04-28T02:45:04;101521.06;;;11.09;100.00
13015;BME280;6573;57.696;11.950;2023-04-28T02:47:33;101515.75;;;11.01;100.00
13015;BME280;6573;57.696;11.950;2023-04-28T02:50:01;101514.00;;;11.03;100.00
13015;BME280;6573;57.696;11.950;2023-04-28T02:52:31;101519.31;;;11.06;100.00
13015;BME280;6573;57.696;11.950;2023-04-28T02:54:59;101528.91;;;11.04;100.00
13015;BME280;6573;57.696;11.950;2023-04-28T02:57:29;101513.13;;;11.07;100.00
13015;BME280;6573;57.696;11.950;2023-04-28T02:59:58;101518.41;;;11.07;100.00
13015;BME280;6573;57.696;11.950;2023-04-28T03:02:26;101521.94;;;11.06;100.00
13015;BME280;6573;57.696;11.950;2023-04-28T03:04:54;101521.91;;;11.03;100.00
13015;BME280;6573;57.696;11.950;2023-04-28T03:07:23;101523.56;;;10.92;100.00
13015;BME280;6573;57.696;11.950;2023-04-28T03:09:53;101527.97;;;10.91;100.00
13015;BME280;6573;57.696;11.950;2023-04-28T03:12:21;101527.00;;;10.79;100.00
13015;BME280;6573;57.696;11.950;2023-04-28T03:14:49;101527.00;;;10.79;100.00
13015;BME280;6573;57.696;11.950;2023-04-28T03:17:18;101527.00;;;10.79;100.00
13015;BME280;6573;57.696;11.950;2023-04-28T03:19:46;101512.91;;;10.71;100.00
13015;BME280;6573;57.696;11.950;2023-04-28T03:22:15;101526.09;;;10.74;100.00
13015;BME280;6573;57.696;11.950;2023-04-28T03:24:43;101523.34;;;10.65;100.00
13015;BME280;6573;57.696;11.950;2023-04-28T03:27:13;101520.72;;;10.62;100.00
13015;BME280;6573;57.696;11.950;2023-04-28T03:29:41;101526.00;;;10.62;100.00
13015;BME280;6573;57.696;11.950;2023-04-28T03:32:09;101530.34;;;10.57;100.00
13015;BME280;6573;57.696;11.950;2023-04-28T03:34:38;101522.41;;;10.54;100.00
13015;BME280;6573;57.696;11.950;2023-04-28T03:37:06;101535.53;;;10.51;100.00
13015;BME280;6573;57.696;11.950;2023-04-28T03:39:34;101534.59;;;10.46;100.00
13015;BME280;6573;57.696;11.950;2023-04-28T03:42:03;101538.09;;;10.43;100.00
13015;BME280;6573;57.696;11.950;2023-04-28T03:44:33;101535.41;;;10.38;100.00
13015;BME280;6573;57.696;11.950;2023-04-28T03:47:02;101537.13;;;10.33;100.00
13015;BME280;6573;57.696;11.950;2023-04-28T03:49:30;101530.94;;;10.28;100.00
13015;BME280;6573;57.696;11.950;2023-04-28T03:51:58;101539.72;;;10.29;100.00
13015;BME280;6573;57.696;11.950;2023-04-28T03:54:27;101543.13;;;10.20;100.00
13015;BME280;6573;57.696;11.950;2023-04-28T03:56:55;101525.31;;;9.98;100.00
13015;BME280;6573;57.696;11.950;2023-04-28T03:59:25;101528.03;;;10.07;100.00
13015;BME280;6573;57.696;11.950;2023-04-28T04:01:55;101543.97;;;10.16;100.00
13015;BME280;6573;57.696;11.950;2023-04-28T04:04:24;101538.53;;;10.04;100.00
13015;BME280;6573;57.696;11.950;2023-04-28T04:06:53;101544.66;;;10.03;100.00
13015;BME280;6573;57.696;11.950;2023-04-28T04:09:21;101536.88;;;10.12;100.00
13015;BME280;6573;57.696;11.950;2023-04-28T04:11:50;101535.22;;;10.20;100.00
13015;BME280;6573;57.696;11.950;2023-04-28T04:14:18;101543.28;;;10.35;100.00
13015;BME280;6573;57.696;11.950;2023-04-28T04:16:46;101541.47;;;10.30;100.00
13015;BME280;6573;57.696;11.950;2023-04-28T04:19:16;101547.56;;;10.24;100.00
13015;BME280;6573;57.696;11.950;2023-04-28T04:21:45;101543.59;;;9.86;100.00
13015;BME280;6573;57.696;11.950;2023-04-28T04:24:13;101548.84;;;9.86;100.00
13015;BME280;6573;57.696;11.950;2023-04-28T04:26:42;101554.09;;;9.86;100.00
13015;BME280;6573;57.696;11.950;2023-04-28T04:29:11;101544.50;;;9.90;100.00
13015;BME280;6573;57.696;11.950;2023-04-28T04:31:39;101556.06;;;10.05;100.00
13015;BME280;6573;57.696;11.950;2023-04-28T04:34:14;101559.25;;;9.77;100.00
13015;BME280;6573;57.696;11.950;2023-04-28T04:36:46;101516.69;;;9.35;100.00
13015;BME280;6573;57.696;11.950;2023-04-28T04:39:16;101558.16;;;9.61;100.00
13015;BME280;6573;57.696;11.950;2023-04-28T04:41:44;101537.44;;;9.86;100.00
13015;BME280;6573;57.696;11.950;2023-04-28T04:44:13;101566.63;;;10.08;100.00
13015;BME280;6573;57.696;11.950;2023-04-28T04:46:41;101559.78;;;10.19;100.00
13015;BME280;6573;57.696;11.950;2023-04-28T04:49:10;101552.59;;;10.06;100.00
13015;BME280;6573;57.696;11.950;2023-04-28T04:51:38;101565.09;;;10.25;100.00
13015;BME280;6573;57.696;11.950;2023-04-28T04:54:08;101554.53;;;10.22;100.00
13015;BME280;6573;57.696;11.950;2023-04-28T04:56:37;101557.19;;;10.24;100.00
13015;BME280;6573;57.696;11.950;2023-04-28T04:59:05;101574.81;;;10.34;100.00
13015;BME280;6573;57.696;11.950;2023-04-28T05:01:33;101574.88;;;10.38;100.00
13015;BME280;6573;57.696;11.950;2023-04-28T05:04:02;101573.97;;;10.36;100.00
13015;BME280;6573;57.696;11.950;2023-04-28T05:06:30;101569.72;;;10.51;100.00
13015;BME280;6573;57.696;11.950;2023-04-28T05:08:59;101566.25;;;10.55;100.00
13015;BME280;6573;57.696;11.950;2023-04-28T05:11:29;101570.75;;;10.68;100.00
13015;BME280;6573;57.696;11.950;2023-04-28T05:13:57;101564.72;;;10.78;100.00
13015;BME280;6573;57.696;11.950;2023-04-28T05:16:25;101570.06;;;10.90;100.00
13015;BME280;6573;57.696;11.950;2023-04-28T05:18:54;101558.69;;;10.91;100.00
13015;BME280;6573;57.696;11.950;2023-04-28T05:21:22;101546.34;;;10.87;100.00
13015;BME280;6573;57.696;11.950;2023-04-28T05:23:51;101576.28;;;10.98;100.00
13015;BME280;6573;57.696;11.950;2023-04-28T05:26:19;101571.16;;;11.19;100.00
13015;BME280;6573;57.696;11.950;2023-04-28T05:28:49;101570.34;;;11.26;100.00
13015;BME280;6573;57.696;11.950;2023-04-28T05:31:18;101567.72;;;11.26;100.00
13015;BME280;6573;57.696;11.950;2023-04-28T05:33:46;101566.84;;;11.29;100.00
13015;BME280;6573;57.696;11.950;2023-04-28T05:36:14;101561.59;;;11.33;100.00
13015;BME280;6573;57.696;11.950;2023-04-28T05:38:43;101551.97;;;11.38;100.00
13015;BME280;6573;57.696;11.950;2023-04-28T05:41:12;101562.56;;;11.47;100.00
13015;BME280;6573;57.696;11.950;2023-04-28T05:43:40;101562.59;;;11.59;100.00
13015;BME280;6573;57.696;11.950;2023-04-28T05:46:10;101561.84;;;11.73;100.00
13015;BME280;6573;57.696;11.950;2023-04-28T05:48:55;101560.13;;;11.81;100.00
13015;BME280;6573;57.696;11.950;2023-04-28T05:51:23;101558.31;;;11.71;100.00
13015;BME280;6573;57.696;11.950;2023-04-28T05:53:53;101562.75;;;11.84;100.00
13015;BME280;6573;57.696;11.950;2023-04-28T05:56:22;101564.47;;;11.73;100.00
13015;BME280;6573;57.696;11.950;2023-04-28T05:58:50;101568.03;;;11.87;100.00
13015;BME280;6573;57.696;11.950;2023-04-28T06:01:21;101567.19;;;11.91;100.00
13015;BME280;6573;57.696;11.950;2023-04-28T06:03:49;101571.56;;;11.89;100.00
13015;BME280;6573;57.696;11.950;2023-04-28T06:06:19;101572.47;;;11.98;100.00
13015;BME280;6573;57.696;11.950;2023-04-28T06:08:48;101573.34;;;11.97;100.00
13015;BME280;6573;57.696;11.950;2023-04-28T06:11:16;101553.13;;;11.95;100.00
13015;BME280;6573;57.696;11.950;2023-04-28T06:13:48;101564.56;;;11.97;100.00
13015;BME280;6573;57.696;11.950;2023-04-28T06:16:17;101575.13;;;12.06;100.00
13015;BME280;6573;57.696;11.950;2023-04-28T06:18:46;101579.50;;;11.90;100.00
13015;BME280;6573;57.696;11.950;2023-04-28T06:21:16;101569.81;;;11.94;100.00
13015;BME280;6573;57.696;11.950;2023-04-28T06:23:44;101566.31;;;11.95;100.00
13015;BME280;6573;57.696;11.950;2023-04-28T06:26:13;101580.38;;;11.94;100.00
13015;BME280;6573;57.696;11.950;2023-04-28T06:28:43;101569.84;;;12.06;100.00
13015;BME280;6573;57.696;11.950;2023-04-28T06:31:12;101559.31;;;12.06;100.00
13015;BME280;6573;57.696;11.950;2023-04-28T06:33:40;101569.94;;;12.36;100.00
13015;BME280;6573;57.696;11.950;2023-04-28T06:36:10;101536.34;;;11.75;100.00
13015;BME280;6573;57.696;11.950;2023-04-28T06:38:40;101555.78;;;11.95;100.00
13015;BME280;6573;57.696;11.950;2023-04-28T06:41:10;101540.88;;;12.15;100.00
13015;BME280;6573;57.696;11.950;2023-04-28T06:43:38;101553.22;;;12.31;100.00
13015;BME280;6573;57.696;11.950;2023-04-28T06:46:07;101550.63;;;12.40;100.00
13015;BME280;6573;57.696;11.950;2023-04-28T06:48:36;101566.47;;;12.61;100.00
13015;BME280;6573;57.696;11.950;2023-04-28T06:51:04;101570.00;;;12.81;100.00
13015;BME280;6573;57.696;11.950;2023-04-28T06:53:34;101562.94;;;12.95;100.00
13015;BME280;6573;57.696;11.950;2023-04-28T06:56:03;101547.09;;;12.80;100.00
13015;BME280;6573;57.696;11.950;2023-04-28T06:58:31;101541.84;;;12.74;100.00
13015;BME280;6573;57.696;11.950;2023-04-28T07:01:00;101571.75;;;12.78;100.00
13015;BME280;6573;57.696;11.950;2023-04-28T07:03:29;101569.97;;;12.60;100.00
13015;BME280;6573;57.696;11.950;2023-04-28T07:05:58;101567.38;;;12.87;100.00
13015;BME280;6573;57.696;11.950;2023-04-28T07:08:26;101555.91;;;12.88;100.00
13015;BME280;6573;57.696;11.950;2023-04-28T07:10:58;101562.94;;;13.05;100.00
13015;BME280;6573;57.696;11.950;2023-04-28T07:13:30;101568.22;;;12.86;100.00
13015;BME280;6573;57.696;11.950;2023-04-28T07:15:59;101565.63;;;13.09;100.00
13015;BME280;6573;57.696;11.950;2023-04-28T07:18:27;101561.16;;;13.25;100.00
13015;BME280;6573;57.696;11.950;2023-04-28T07:20:55;101557.63;;;13.35;100.00
13015;BME280;6573;57.696;11.950;2023-04-28T07:23:24;101557.63;;;13.44;100.00
13015;BME280;6573;57.696;11.950;2023-04-28T07:25:52;101559.31;;;13.57;100.00
13015;BME280;6573;57.696;11.950;2023-04-28T07:28:21;101566.41;;;13.49;100.00
13015;BME280;6573;57.696;11.950;2023-04-28T07:30:50;101559.31;;;13.60;100.00
13015;BME280;6573;57.696;11.950;2023-04-28T07:33:18;101555.91;;;13.11;100.00
13015;BME280;6573;57.696;11.950;2023-04-28T07:35:46;101570.91;;;13.12;100.00
13015;BME280;6573;57.696;11.950;2023-04-28T07:38:15;101571.78;;;13.07;100.00
13015;BME280;6573;57.696;11.950;2023-04-28T07:40:44;101557.69;;;13.14;100.00
13015;BME280;6573;57.696;11.950;2023-04-28T07:43:12;101552.34;;;13.38;100.00
13015;BME280;6573;57.696;11.950;2023-04-28T07:45:42;101506.59;;;13.18;100.00
13015;BME280;6573;57.696;11.950;2023-04-28T07:48:14;101561.09;;;13.61;100.00
13015;BME280;6573;57.696;11.950;2023-04-28T07:50:44;101568.09;;;13.74;100.00
13015;BME280;6573;57.696;11.950;2023-04-28T07:53:12;101577.03;;;13.37;100.00
13015;BME280;6573;57.696;11.950;2023-04-28T07:55:40;101564.63;;;13.51;100.00
13015;BME280;6573;57.696;11.950;2023-04-28T07:58:10;101563.78;;;13.41;100.00
13015;BME280;6573;57.696;11.950;2023-04-28T08:00:43;101579.66;;;13.31;100.00
13015;BME280;6573;57.696;11.950;2023-04-28T08:03:11;101577.84;;;13.48;100.00
13015;BME280;6573;57.696;11.950;2023-04-28T08:05:40;101564.69;;;13.33;100.00
13015;BME280;6573;57.696;11.950;2023-04-28T08:08:08;101583.97;;;13.65;100.00
13015;BME280;6573;57.696;11.950;2023-04-28T08:10:37;101572.44;;;13.89;100.00
13015;BME280;6573;57.696;11.950;2023-04-28T08:13:07;101578.56;;;14.01;100.00
13015;BME280;6573;57.696;11.950;2023-04-28T08:15:35;101576.78;;;13.97;100.00
13015;BME280;6573;57.696;11.950;2023-04-28T08:18:06;101581.78;;;14.61;100.00
13015;BME280;6573;57.696;11.950;2023-04-28T08:20:34;101570.22;;;15.64;100.00
13015;BME280;6573;57.696;11.950;2023-04-28T08:23:02;101562.47;;;16.17;100.00
13015;BME280;6573;57.696;11.950;2023-04-28T08:25:31;101569.22;;;16.39;100.00
13015;BME280;6573;57.696;11.950;2023-04-28T08:27:59;101570.03;;;15.79;95.47
13015;BME280;6573;57.696;11.950;2023-04-28T08:30:29;101551.88;;;16.14;100.00
13015;BME280;6573;57.696;11.950;2023-04-28T08:32:57;101564.50;;;16.61;100.00
13015;BME280;6573;57.696;11.950;2023-04-28T08:35:27;101570.59;;;16.03;95.50
13015;BME280;6573;57.696;11.950;2023-04-28T08:37:55;101561.81;;;15.19;94.72
13015;BME280;6573;57.696;11.950;2023-04-28T08:40:24;101569.22;;;14.84;96.94
13015;BME280;6573;57.696;11.950;2023-04-28T08:42:54;101564.78;;;14.84;99.66
13015;BME280;6573;57.696;11.950;2023-04-28T08:45:23;101563.78;;;14.99;100.00
13015;BME280;6573;57.696;11.950;2023-04-28T08:47:54;101572.38;;;15.25;99.42
13015;BME280;6573;57.696;11.950;2023-04-28T08:50:25;101578.28;;;14.53;92.98
13015;BME280;6573;57.696;11.950;2023-04-28T08:52:57;101580.03;;;14.54;96.18
13015;BME280;6573;57.696;11.950;2023-04-28T08:55:26;101586.88;;;14.85;94.80
13015;BME280;6573;57.696;11.950;2023-04-28T08:57:55;101587.22;;;14.27;92.52
13015;BME280;6573;57.696;11.950;2023-04-28T09:00:23;101585.31;;;14.54;98.37
13015;BME280;6573;57.696;11.950;2023-04-28T09:02:53;101579.88;;;14.75;94.93
13015;BME280;6573;57.696;11.950;2023-04-28T09:05:22;101587.06;;;14.61;96.36
13015;BME280;6573;57.696;11.950;2023-04-28T09:07:51;101581.81;;;14.55;96.93
13015;BME280;6573;57.696;11.950;2023-04-28T09:10:24;101580.09;;;14.48;97.51
13015;BME280;6573;57.696;11.950;2023-04-28T09:12:54;101588.91;;;14.47;99.01
13015;BME280;6573;57.696;11.950;2023-04-28T09:15:26;101589.69;;;14.59;97.60
13015;BME280;6573;57.696;11.950;2023-04-28T09:17:57;101578.19;;;14.68;93.46
13015;BME280;6573;57.696;11.950;2023-04-28T09:20:27;101579.78;;;14.87;95.81
13015;BME280;6573;57.696;11.950;2023-04-28T09:23:12;101548.97;;;14.74;92.21
13015;BME280;6573;57.696;11.950;2023-04-28T09:25:54;101585.09;;;14.84;93.68
13015;BME280;6573;57.696;11.950;2023-04-28T09:28:23;101581.25;;;15.21;93.69
13015;BME280;6573;57.696;11.950;2023-04-28T09:30:51;101576.38;;;14.71;92.20
13015;BME280;6573;57.696;11.950;2023-04-28T09:33:20;101580.09;;;14.48;92.30
13015;BME280;6573;57.696;11.950;2023-04-28T09:35:49;101590.69;;;14.48;92.00
13015;BME280;6573;57.696;11.950;2023-04-28T09:38:18;101583.59;;;14.50;90.70
13015;BME280;6573;57.696;11.950;2023-04-28T09:40:56;101585.44;;;14.29;88.77
13015;BME280;6573;57.696;11.950;2023-04-28T09:43:26;101584.47;;;14.53;88.45
13015;BME280;6573;57.696;11.950;2023-04-28T09:45:56;101574.78;;;14.48;86.50
13015;BME280;6573;57.696;11.950;2023-04-28T09:48:29;101574.94;;;14.20;82.65
13015;BME280;6573;57.696;11.950;2023-04-28T09:50:58;101562.72;;;13.92;81.76
13015;BME280;6573;57.696;11.950;2023-04-28T09:53:27;101580.28;;;14.08;82.14
13015;BME280;6573;57.696;11.950;2023-04-28T09:55:59;101579.34;;;14.20;84.76
13015;BME280;6573;57.696;11.950;2023-04-28T09:58:29;101573.16;;;14.22;84.65
13015;BME280;6573;57.696;11.950;2023-04-28T10:00:59;101577.59;;;14.14;85.98
13015;BME280;6573;57.696;11.950;2023-04-28T10:03:30;101578.53;;;14.04;81.01
13015;BME280;6573;57.696;11.950;2023-04-28T10:05:58;101546.09;;;13.69;82.31
13015;BME280;6573;57.696;11.950;2023-04-28T10:08:27;101579.47;;;13.99;84.79
13015;BME280;6573;57.696;11.950;2023-04-28T10:10:57;101573.22;;;14.04;83.07
13015;BME280;6573;57.696;11.950;2023-04-28T10:13:26;101577.59;;;14.16;83.98
13015;BME280;6573;57.696;11.950;2023-04-28T10:15:55;101564.41;;;14.08;86.46
13015;BME280;6573;57.696;11.950;2023-04-28T10:18:24;101546.84;;;13.89;90.19
13015;BME280;6573;57.696;11.950;2023-04-28T10:20:56;101573.19;;;14.16;93.46
13015;BME280;6573;57.696;11.950;2023-04-28T10:26:20;101575.84;;;14.13;97.81
13015;BME280;6573;57.696;11.950;2023-04-28T10:28:50;101566.13;;;14.15;97.57
13015;BME280;6573;57.696;11.950;2023-04-28T10:31:19;101544.91;;;14.31;96.99
13015;BME280;6573;57.696;11.950;2023-04-28T10:33:49;101567.59;;;14.68;94.46
13015;BME280;6573;57.696;11.950;2023-04-28T10:39:25;101569.56;;;14.36;100.00
13015;BME280;6573;57.696;11.950;2023-04-28T10:41:55;101570.47;;;14.32;100.00
13015;BME280;6573;57.696;11.950;2023-04-28T10:44:42;101574.13;;;14.05;100.00
13015;BME280;6573;57.696;11.950;2023-04-28T10:47:11;101552.06;;;14.07;100.00
13015;BME280;6573;57.696;11.950;2023-04-28T10:50:09;101553.84;;;13.99;100.00
13015;BME280;6573;57.696;11.950;2023-04-28T10:52:47;101546.88;;;13.88;100.00
13015;BME280;6573;57.696;11.950;2023-04-28T10:55:32;101562.72;;;13.89;100.00
13015;BME280;6573;57.696;11.950;2023-04-28T10:58:31;101579.22;;;14.46;100.00
13015;BME280;6573;57.696;11.950;2023-04-28T11:01:27;101569.56;;;14.36;100.00
13015;BME280;6573;57.696;11.950;2023-04-28T11:03:58;101591.63;;;14.30;100.00
13015;BME280;6573;57.696;11.950;2023-04-28T11:06:32;101580.09;;;14.45;100.00
13015;BME280;6573;57.696;11.950;2023-04-28T11:09:45;101569.50;;;14.45;100.00
13015;BME280;6573;57.696;11.950;2023-04-28T11:12:07;101572.22;;;14.29;100.00
13015;BME280;6573;57.696;11.950;2023-04-28T11:14:38;101574.94;;;14.20;100.00
13015;BME280;6573;57.696;11.950;2023-04-28T11:17:08;101583.78;;;14.10;100.00
13015;BME280;6573;57.696;11.950;2023-04-28T11:19:41;101588.19;;;14.19;100.00
13015;BME280;6573;57.696;11.950;2023-04-28T11:22:15;101581.06;;;14.27;100.00
13015;BME280;6573;57.696;11.950;2023-04-28T11:24:54;101578.50;;;14.10;100.00
13015;BME280;6573;57.696;11.950;2023-04-28T11:27:24;101550.25;;;14.12;100.00
13015;BME280;6573;57.696;11.950;2023-04-28T11:29:54;101580.22;;;14.20;100.00
13015;BME280;6573;57.696;11.950;2023-04-28T11:32:26;101551.09;;;14.22;100.00
13015;BME280;6573;57.696;11.950;2023-04-28T11:34:56;101573.78;;;14.64;100.00
13015;BME280;6573;57.696;11.950;2023-04-28T11:37:25;101579.25;;;14.37;100.00
13015;BME280;6573;57.696;11.950;2023-04-28T11:39:53;101574.88;;;14.36;100.00
13015;BME280;6573;57.696;11.950;2023-04-28T11:42:23;101584.56;;;14.37;100.00
13015;BME280;6573;57.696;11.950;2023-04-28T11:44:56;101587.31;;;14.09;100.00
13015;BME280;6573;57.696;11.950;2023-04-28T11:47:28;101599.59;;;14.22;100.00
13015;BME280;6573;57.696;11.950;2023-04-28T11:49:59;101586.19;;;14.57;100.00
13015;BME280;6573;57.696;11.950;2023-04-28T11:52:29;101587.03;;;14.64;100.00
13015;BME280;6573;57.696;11.950;2023-04-28T11:54:58;101592.28;;;14.73;100.00
13015;BME280;6573;57.696;11.950;2023-04-28T11:57:28;101568.06;;;15.15;100.00
13015;BME280;6573;57.696;11.950;2023-04-28T12:00:13;101586.25;;;15.54;100.00
13015;BME280;6573;57.696;11.950;2023-04-28T12:02:45;101593.44;;;15.40;100.00
13015;BME280;6573;57.696;11.950;2023-04-28T12:05:14;101587.91;;;15.65;100.00
13015;BME280;6573;57.696;11.950;2023-04-28T12:07:44;101576.22;;;15.79;100.00
13015;BME280;6573;57.696;11.950;2023-04-28T12:10:13;101568.66;;;15.47;99.64
13015;BME280;6573;57.696;11.950;2023-04-28T12:12:43;101565.41;;;15.15;99.42
13015;BME280;6573;57.696;11.950;2023-04-28T12:15:20;101566.03;;;15.38;99.19
13015;BME280;6573;57.696;11.950;2023-04-28T12:17:51;101573.78;;;15.63;99.54
13015;BME280;6573;57.696;11.950;2023-04-28T12:20:33;101580.66;;;14.90;96.17
13015;BME280;6573;57.696;11.950;2023-04-28T12:23:02;101572.06;;;14.57;97.36
13015;BME280;6573;57.696;11.950;2023-04-28T12:25:31;101572.19;;;14.43;99.96
13015;BME280;6573;57.696;11.950;2023-04-28T12:28:03;101580.97;;;14.47;100.00
13015;BME280;6573;57.696;11.950;2023-04-28T12:30:36;101580.94;;;14.53;100.00
13015;BME280;6573;57.696;11.950;2023-04-28T12:33:21;101567.09;;;15.22;99.54
13015;BME280;6573;57.696;11.950;2023-04-28T12:35:50;101539.75;;;15.20;98.44
13015;BME280;6573;57.696;11.950;2023-04-28T12:38:21;101555.00;;;14.91;100.00
13015;BME280;6573;57.696;11.950;2023-04-28T12:40:49;101551.63;;;14.77;100.00
13015;BME280;6573;57.696;11.950;2023-04-28T12:43:22;101567.28;;;15.01;100.00
13015;BME280;6573;57.696;11.950;2023-04-28T12:45:52;101572.66;;;14.95;100.00
13015;BME280;6573;57.696;11.950;2023-04-28T12:48:21;101571.81;;;14.90;99.67
13015;BME280;6573;57.696;11.950;2023-04-28T12:50:51;101565.47;;;15.09;100.00
13015;BME280;6573;57.696;11.950;2023-04-28T12:53:19;101573.00;;;14.53;100.00
13015;BME280;6573;57.696;11.950;2023-04-28T12:55:48;101586.25;;;14.48;100.00
13015;BME280;6573;57.696;11.950;2023-04-28T12:58:16;101573.66;;;14.80;100.00
13015;BME280;6573;57.696;11.950;2023-04-28T13:00:45;101594.09;;;14.65;100.00
13015;BME280;6573;57.696;11.950;2023-04-28T13:03:14;101585.47;;;14.36;100.00